sensor_id;sensor_type;location;lat;lon;timestamp;temperature;humidity
53268;DHT22;39156;51.176;6.738;2022-12-05T00:00:19;2.60;75.20
53268;DHT22;39156;51.176;6.738;2022-12-05T00:02:45;2.70;75.30
53268;DHT22;39156;51.176;6.738;2022-12-05T00:05:11;2.60;75.20
53268;DHT22;39156;51.176;6.738;2022-12-05T00:07:37;2.60;75.30
53268;DHT22;39156;51.176;6.738;2022-12-05T00:10:04;2.60;75.30
53268;DHT22;39156;51.176;6.738;2022-12-05T00:12:30;2.60;75.30
53268;DHT22;39156;51.176;6.738;2022-12-05T00:14:56;2.40;75.10
53268;DHT22;39156;51.176;6.738;2022-12-05T00:17:21;2.60;75.10
53268;DHT22;39156;51.176;6.738;2022-12-05T00:19:47;2.60;75.20
53268;DHT22;39156;51.176;6.738;2022-12-05T00:22:13;2.60;75.70
53268;DHT22;39156;51.176;6.738;2022-12-05T00:24:39;2.60;75.20
53268;DHT22;39156;51.176;6.738;2022-12-05T00:27:05;2.60;75.30
53268;DHT22;39156;51.176;6.738;2022-12-05T00:29:30;2.70;75.50
53268;DHT22;39156;51.176;6.738;2022-12-05T00:31:56;2.50;75.40
53268;DHT22;39156;51.176;6.738;2022-12-05T00:34:22;2.60;75.30
53268;DHT22;39156;51.176;6.738;2022-12-05T00:36:48;2.60;75.40
53268;DHT22;39156;51.176;6.738;2022-12-05T00:39:14;2.50;76.00
53268;DHT22;39156;51.176;6.738;2022-12-05T00:41:40;2.50;75.50
53268;DHT22;39156;51.176;6.738;2022-12-05T00:44:07;2.60;75.60
53268;DHT22;39156;51.176;6.738;2022-12-05T00:46:34;2.60;75.80
53268;DHT22;39156;51.176;6.738;2022-12-05T00:49:01;2.50;75.70
53268;DHT22;39156;51.176;6.738;2022-12-05T00:51:36;2.50;75.60
53268;DHT22;39156;51.176;6.738;2022-12-05T00:54:07;2.50;75.90
53268;DHT22;39156;51.176;6.738;2022-12-05T00:56:34;2.60;75.80
53268;DHT22;39156;51.176;6.738;2022-12-05T00:59:01;2.50;75.80
53268;DHT22;39156;51.176;6.738;2022-12-05T01:01:30;2.50;75.80
53268;DHT22;39156;51.176;6.738;2022-12-05T01:04:10;2.50;75.90
53268;DHT22;39156;51.176;6.738;2022-12-05T01:06:37;2.50;76.00
53268;DHT22;39156;51.176;6.738;2022-12-05T01:09:05;2.50;76.00
53268;DHT22;39156;51.176;6.738;2022-12-05T01:11:31;2.60;76.00
53268;DHT22;39156;51.176;6.738;2022-12-05T01:13:57;2.50;76.10
53268;DHT22;39156;51.176;6.738;2022-12-05T01:16:31;2.50;76.00
53268;DHT22;39156;51.176;6.738;2022-12-05T01:18:58;2.50;76.00
53268;DHT22;39156;51.176;6.738;2022-12-05T01:21:25;2.50;75.90
53268;DHT22;39156;51.176;6.738;2022-12-05T01:23:51;2.50;75.90
53268;DHT22;39156;51.176;6.738;2022-12-05T01:26:19;2.50;75.90
53268;DHT22;39156;51.176;6.738;2022-12-05T01:28:46;2.50;75.90
53268;DHT22;39156;51.176;6.738;2022-12-05T01:33:56;2.50;76.20
53268;DHT22;39156;51.176;6.738;2022-12-05T01:36:23;2.50;76.10
53268;DHT22;39156;51.176;6.738;2022-12-05T01:38:49;2.40;76.10
53268;DHT22;39156;51.176;6.738;2022-12-05T01:41:19;2.50;76.10
53268;DHT22;39156;51.176;6.738;2022-12-05T01:46:43;2.60;76.50
53268;DHT22;39156;51.176;6.738;2022-12-05T01:49:19;2.40;76.30
53268;DHT22;39156;51.176;6.738;2022-12-05T01:51:51;2.40;76.60
53268;DHT22;39156;51.176;6.738;2022-12-05T01:54:19;2.50;76.50
53268;DHT22;39156;51.176;6.738;2022-12-05T01:56:49;2.50;76.40
53268;DHT22;39156;51.176;6.738;2022-12-05T01:59:19;2.50;76.50
53268;DHT22;39156;51.176;6.738;2022-12-05T02:01:45;2.50;76.50
53268;DHT22;39156;51.176;6.738;2022-12-05T02:04:11;2.50;76.60
53268;DHT22;39156;51.176;6.738;2022-12-05T02:06:37;2.50;76.60
53268;DHT22;39156;51.176;6.738;2022-12-05T02:09:03;2.50;76.60
53268;DHT22;39156;51.176;6.738;2022-12-05T02:11:30;2.60;76.70
53268;DHT22;39156;51.176;6.738;2022-12-05T02:14:14;2.60;76.60
53268;DHT22;39156;51.176;6.738;2022-12-05T02:26:34;2.50;76.50
53268;DHT22;39156;51.176;6.738;2022-12-05T02:30:08;2.60;76.20
53268;DHT22;39156;51.176;6.738;2022-12-05T02:32:41;2.60;76.40
53268;DHT22;39156;51.176;6.738;2022-12-05T02:35:40;2.70;76.30
53268;DHT22;39156;51.176;6.738;2022-12-05T02:38:35;2.50;76.40
53268;DHT22;39156;51.176;6.738;2022-12-05T02:44:04;2.60;76.10
53268;DHT22;39156;51.176;6.738;2022-12-05T02:46:35;3.00;76.30
53268;DHT22;39156;51.176;6.738;2022-12-05T02:49:24;2.70;75.90
53268;DHT22;39156;51.176;6.738;2022-12-05T02:51:56;2.70;76.00
53268;DHT22;39156;51.176;6.738;2022-12-05T02:54:25;2.60;75.90
53268;DHT22;39156;51.176;6.738;2022-12-05T02:56:55;2.50;75.90
53268;DHT22;39156;51.176;6.738;2022-12-05T02:59:22;2.50;75.90
53268;DHT22;39156;51.176;6.738;2022-12-05T03:01:47;2.60;75.90
53268;DHT22;39156;51.176;6.738;2022-12-05T03:04:14;2.60;76.00
53268;DHT22;39156;51.176;6.738;2022-12-05T03:06:50;2.60;76.00
53268;DHT22;39156;51.176;6.738;2022-12-05T03:09:22;2.70;76.10
53268;DHT22;39156;51.176;6.738;2022-12-05T03:11:59;2.60;75.90
53268;DHT22;39156;51.176;6.738;2022-12-05T03:15:03;2.60;76.00
53268;DHT22;39156;51.176;6.738;2022-12-05T03:17:35;2.60;76.00
53268;DHT22;39156;51.176;6.738;2022-12-05T03:20:22;2.70;76.10
53268;DHT22;39156;51.176;6.738;2022-12-05T03:23:02;2.60;76.30
53268;DHT22;39156;51.176;6.738;2022-12-05T03:28:33;2.70;76.00
53268;DHT22;39156;51.176;6.738;2022-12-05T03:31:32;2.60;75.90
53268;DHT22;39156;51.176;6.738;2022-12-05T03:34:06;2.60;75.80
53268;DHT22;39156;51.176;6.738;2022-12-05T03:36:43;2.70;75.80
53268;DHT22;39156;51.176;6.738;2022-12-05T03:39:24;2.70;75.70
53268;DHT22;39156;51.176;6.738;2022-12-05T03:41:54;2.70;76.50
53268;DHT22;39156;51.176;6.738;2022-12-05T03:44:51;2.70;75.90
53268;DHT22;39156;51.176;6.738;2022-12-05T03:47:46;2.60;76.00
53268;DHT22;39156;51.176;6.738;2022-12-05T03:50:41;2.60;76.10
53268;DHT22;39156;51.176;6.738;2022-12-05T03:53:12;2.60;76.20
53268;DHT22;39156;51.176;6.738;2022-12-05T03:55:42;2.60;76.10
53268;DHT22;39156;51.176;6.738;2022-12-05T03:58:21;2.60;76.40
53268;DHT22;39156;51.176;6.738;2022-12-05T04:00:52;2.60;76.50
53268;DHT22;39156;51.176;6.738;2022-12-05T04:03:28;2.60;76.40
53268;DHT22;39156;51.176;6.738;2022-12-05T04:06:23;2.70;76.70
53268;DHT22;39156;51.176;6.738;2022-12-05T04:08:57;2.60;76.50
53268;DHT22;39156;51.176;6.738;2022-12-05T04:11:28;2.60;76.40
53268;DHT22;39156;51.176;6.738;2022-12-05T04:14:05;2.70;76.40
53268;DHT22;39156;51.176;6.738;2022-12-05T04:16:53;2.70;76.70
53268;DHT22;39156;51.176;6.738;2022-12-05T04:22:39;2.80;76.60
53268;DHT22;39156;51.176;6.738;2022-12-05T04:25:09;2.80;76.20
53268;DHT22;39156;51.176;6.738;2022-12-05T04:33:47;2.80;75.90
53268;DHT22;39156;51.176;6.738;2022-12-05T04:36:53;2.80;76.10
53268;DHT22;39156;51.176;6.738;2022-12-05T04:39:46;2.80;76.30
53268;DHT22;39156;51.176;6.738;2022-12-05T04:42:19;2.80;76.30
53268;DHT22;39156;51.176;6.738;2022-12-05T04:44:52;2.80;76.30
53268;DHT22;39156;51.176;6.738;2022-12-05T04:47:23;2.90;76.50
53268;DHT22;39156;51.176;6.738;2022-12-05T04:49:53;2.80;76.20
53268;DHT22;39156;51.176;6.738;2022-12-05T04:52:20;2.80;76.00
53268;DHT22;39156;51.176;6.738;2022-12-05T04:54:53;2.80;76.00
53268;DHT22;39156;51.176;6.738;2022-12-05T04:57:28;2.80;75.90
53268;DHT22;39156;51.176;6.738;2022-12-05T04:59:58;2.80;75.70
53268;DHT22;39156;51.176;6.738;2022-12-05T05:02:32;2.80;75.60
53268;DHT22;39156;51.176;6.738;2022-12-05T05:05:00;2.80;75.80
53268;DHT22;39156;51.176;6.738;2022-12-05T05:07:28;2.80;75.80
53268;DHT22;39156;51.176;6.738;2022-12-05T05:09:54;2.90;75.80
53268;DHT22;39156;51.176;6.738;2022-12-05T05:12:20;2.80;75.70
53268;DHT22;39156;51.176;6.738;2022-12-05T05:14:46;2.80;75.40
53268;DHT22;39156;51.176;6.738;2022-12-05T05:17:12;2.80;76.10
53268;DHT22;39156;51.176;6.738;2022-12-05T05:19:37;2.80;75.70
53268;DHT22;39156;51.176;6.738;2022-12-05T05:22:03;2.70;75.50
53268;DHT22;39156;51.176;6.738;2022-12-05T05:24:29;2.70;75.60
53268;DHT22;39156;51.176;6.738;2022-12-05T05:26:54;2.70;75.70
53268;DHT22;39156;51.176;6.738;2022-12-05T05:29:20;2.70;76.40
53268;DHT22;39156;51.176;6.738;2022-12-05T05:31:46;2.70;75.70
53268;DHT22;39156;51.176;6.738;2022-12-05T05:34:11;3.00;76.10
53268;DHT22;39156;51.176;6.738;2022-12-05T05:36:40;2.70;76.00
53268;DHT22;39156;51.176;6.738;2022-12-05T05:39:10;2.80;76.00
53268;DHT22;39156;51.176;6.738;2022-12-05T05:41:37;2.60;75.70
53268;DHT22;39156;51.176;6.738;2022-12-05T05:44:03;2.70;75.90
53268;DHT22;39156;51.176;6.738;2022-12-05T05:46:31;2.70;76.00
53268;DHT22;39156;51.176;6.738;2022-12-05T05:48:58;2.70;75.90
53268;DHT22;39156;51.176;6.738;2022-12-05T05:51:23;2.70;75.90
53268;DHT22;39156;51.176;6.738;2022-12-05T05:53:54;2.90;76.00
53268;DHT22;39156;51.176;6.738;2022-12-05T05:56:20;2.80;75.90
53268;DHT22;39156;51.176;6.738;2022-12-05T05:58:47;2.80;75.90
53268;DHT22;39156;51.176;6.738;2022-12-05T06:01:18;2.90;75.80
53268;DHT22;39156;51.176;6.738;2022-12-05T06:03:47;2.90;75.80
53268;DHT22;39156;51.176;6.738;2022-12-05T06:06:15;2.90;75.80
53268;DHT22;39156;51.176;6.738;2022-12-05T06:08:42;2.90;75.70
53268;DHT22;39156;51.176;6.738;2022-12-05T06:11:11;2.90;75.70
53268;DHT22;39156;51.176;6.738;2022-12-05T06:13:39;2.90;75.60
53268;DHT22;39156;51.176;6.738;2022-12-05T06:16:06;3.00;75.70
53268;DHT22;39156;51.176;6.738;2022-12-05T06:18:33;3.00;75.60
53268;DHT22;39156;51.176;6.738;2022-12-05T06:20:59;3.00;75.50
53268;DHT22;39156;51.176;6.738;2022-12-05T06:23:26;3.10;75.50
53268;DHT22;39156;51.176;6.738;2022-12-05T06:25:54;3.10;75.40
53268;DHT22;39156;51.176;6.738;2022-12-05T06:28:22;3.00;76.20
53268;DHT22;39156;51.176;6.738;2022-12-05T06:30:49;3.00;75.60
53268;DHT22;39156;51.176;6.738;2022-12-05T06:33:15;3.10;75.70
53268;DHT22;39156;51.176;6.738;2022-12-05T06:35:42;3.10;75.80
53268;DHT22;39156;51.176;6.738;2022-12-05T06:38:08;3.10;75.70
53268;DHT22;39156;51.176;6.738;2022-12-05T06:40:42;3.20;75.70
53268;DHT22;39156;51.176;6.738;2022-12-05T06:43:08;3.20;75.60
53268;DHT22;39156;51.176;6.738;2022-12-05T06:45:36;3.30;75.70
53268;DHT22;39156;51.176;6.738;2022-12-05T06:48:03;3.30;75.70
53268;DHT22;39156;51.176;6.738;2022-12-05T06:50:29;3.20;75.60
53268;DHT22;39156;51.176;6.738;2022-12-05T06:52:54;3.20;75.50
53268;DHT22;39156;51.176;6.738;2022-12-05T06:55:20;3.40;75.60
53268;DHT22;39156;51.176;6.738;2022-12-05T06:57:46;3.40;75.70
53268;DHT22;39156;51.176;6.738;2022-12-05T07:00:12;3.50;75.50
53268;DHT22;39156;51.176;6.738;2022-12-05T07:02:57;3.40;75.20
53268;DHT22;39156;51.176;6.738;2022-12-05T07:05:22;3.40;75.10
53268;DHT22;39156;51.176;6.738;2022-12-05T07:07:48;3.40;75.10
53268;DHT22;39156;51.176;6.738;2022-12-05T07:10:14;3.40;75.30
53268;DHT22;39156;51.176;6.738;2022-12-05T07:12:39;3.50;75.40
53268;DHT22;39156;51.176;6.738;2022-12-05T07:15:05;3.50;75.40
53268;DHT22;39156;51.176;6.738;2022-12-05T07:17:35;3.50;75.60
53268;DHT22;39156;51.176;6.738;2022-12-05T07:20:03;3.50;75.50
53268;DHT22;39156;51.176;6.738;2022-12-05T07:22:30;3.50;74.90
53268;DHT22;39156;51.176;6.738;2022-12-05T07:24:55;3.50;74.70
53268;DHT22;39156;51.176;6.738;2022-12-05T07:27:21;3.60;74.50
53268;DHT22;39156;51.176;6.738;2022-12-05T07:29:47;3.50;74.40
53268;DHT22;39156;51.176;6.738;2022-12-05T07:32:13;3.50;74.20
53268;DHT22;39156;51.176;6.738;2022-12-05T07:34:38;3.50;74.20
53268;DHT22;39156;51.176;6.738;2022-12-05T07:37:04;3.50;73.90
53268;DHT22;39156;51.176;6.738;2022-12-05T07:39:30;3.50;73.90
53268;DHT22;39156;51.176;6.738;2022-12-05T07:41:56;3.40;74.00
53268;DHT22;39156;51.176;6.738;2022-12-05T07:44:21;3.30;74.10
53268;DHT22;39156;51.176;6.738;2022-12-05T07:46:47;3.40;74.10
53268;DHT22;39156;51.176;6.738;2022-12-05T07:49:13;3.30;74.00
53268;DHT22;39156;51.176;6.738;2022-12-05T07:51:40;3.40;74.20
53268;DHT22;39156;51.176;6.738;2022-12-05T07:54:06;3.30;74.40
53268;DHT22;39156;51.176;6.738;2022-12-05T07:56:32;3.30;74.60
53268;DHT22;39156;51.176;6.738;2022-12-05T07:58:57;3.30;74.70
53268;DHT22;39156;51.176;6.738;2022-12-05T08:01:25;3.40;75.10
53268;DHT22;39156;51.176;6.738;2022-12-05T08:03:53;3.30;75.10
53268;DHT22;39156;51.176;6.738;2022-12-05T08:06:26;3.30;75.30
53268;DHT22;39156;51.176;6.738;2022-12-05T08:08:54;3.30;75.10
53268;DHT22;39156;51.176;6.738;2022-12-05T08:11:22;3.40;74.80
53268;DHT22;39156;51.176;6.738;2022-12-05T08:13:52;3.40;74.50
53268;DHT22;39156;51.176;6.738;2022-12-05T08:16:21;3.50;74.20
53268;DHT22;39156;51.176;6.738;2022-12-05T08:18:48;3.50;74.10
53268;DHT22;39156;51.176;6.738;2022-12-05T08:21:16;3.30;74.00
53268;DHT22;39156;51.176;6.738;2022-12-05T08:23:44;3.30;74.10
53268;DHT22;39156;51.176;6.738;2022-12-05T08:26:19;3.20;74.10
53268;DHT22;39156;51.176;6.738;2022-12-05T08:28:52;3.20;74.00
53268;DHT22;39156;51.176;6.738;2022-12-05T08:35:02;3.20;74.30
53268;DHT22;39156;51.176;6.738;2022-12-05T08:37:28;3.10;74.40
53268;DHT22;39156;51.176;6.738;2022-12-05T08:39:56;3.10;74.30
53268;DHT22;39156;51.176;6.738;2022-12-05T08:42:22;3.00;74.20
53268;DHT22;39156;51.176;6.738;2022-12-05T08:44:48;3.10;74.40
53268;DHT22;39156;51.176;6.738;2022-12-05T08:47:15;3.10;74.60
53268;DHT22;39156;51.176;6.738;2022-12-05T08:49:41;3.00;74.70
53268;DHT22;39156;51.176;6.738;2022-12-05T08:52:07;3.00;74.70
53268;DHT22;39156;51.176;6.738;2022-12-05T08:54:33;3.10;74.70
53268;DHT22;39156;51.176;6.738;2022-12-05T08:56:58;3.00;74.80
53268;DHT22;39156;51.176;6.738;2022-12-05T08:59:24;3.10;75.00
53268;DHT22;39156;51.176;6.738;2022-12-05T09:01:50;3.10;75.10
53268;DHT22;39156;51.176;6.738;2022-12-05T09:04:15;3.10;75.30
53268;DHT22;39156;51.176;6.738;2022-12-05T09:06:44;3.20;75.60
53268;DHT22;39156;51.176;6.738;2022-12-05T09:09:10;3.20;75.40
53268;DHT22;39156;51.176;6.738;2022-12-05T09:11:39;3.30;75.50
53268;DHT22;39156;51.176;6.738;2022-12-05T09:14:10;3.30;75.30
53268;DHT22;39156;51.176;6.738;2022-12-05T09:16:37;3.30;75.50
53268;DHT22;39156;51.176;6.738;2022-12-05T09:19:03;3.30;75.50
53268;DHT22;39156;51.176;6.738;2022-12-05T09:21:30;3.40;75.40
53268;DHT22;39156;51.176;6.738;2022-12-05T09:23:57;3.40;75.40
53268;DHT22;39156;51.176;6.738;2022-12-05T09:26:25;3.50;75.30
53268;DHT22;39156;51.176;6.738;2022-12-05T09:28:51;3.60;75.30
53268;DHT22;39156;51.176;6.738;2022-12-05T09:31:20;3.50;75.10
53268;DHT22;39156;51.176;6.738;2022-12-05T09:33:48;3.50;74.90
53268;DHT22;39156;51.176;6.738;2022-12-05T09:36:17;3.60;74.90
53268;DHT22;39156;51.176;6.738;2022-12-05T09:38:44;3.60;74.50
53268;DHT22;39156;51.176;6.738;2022-12-05T09:47:44;3.60;74.70
53268;DHT22;39156;51.176;6.738;2022-12-05T09:55:46;3.70;75.30
53268;DHT22;39156;51.176;6.738;2022-12-05T10:10:06;3.80;74.80
53268;DHT22;39156;51.176;6.738;2022-12-05T10:15:59;4.00;74.80
53268;DHT22;39156;51.176;6.738;2022-12-05T10:21:43;4.00;74.80
53268;DHT22;39156;51.176;6.738;2022-12-05T10:24:30;4.10;74.70
53268;DHT22;39156;51.176;6.738;2022-12-05T10:27:04;4.10;74.60
53268;DHT22;39156;51.176;6.738;2022-12-05T10:29:43;4.20;74.80
53268;DHT22;39156;51.176;6.738;2022-12-05T10:35:24;4.40;74.30
53268;DHT22;39156;51.176;6.738;2022-12-05T10:37:53;4.50;74.60
53268;DHT22;39156;51.176;6.738;2022-12-05T10:40:38;4.40;74.30
53268;DHT22;39156;51.176;6.738;2022-12-05T10:43:26;4.60;74.30
53268;DHT22;39156;51.176;6.738;2022-12-05T10:45:59;4.60;73.90
53268;DHT22;39156;51.176;6.738;2022-12-05T10:48:53;4.60;73.90
53268;DHT22;39156;51.176;6.738;2022-12-05T10:51:26;4.60;73.40
53268;DHT22;39156;51.176;6.738;2022-12-05T10:53:52;4.70;73.70
53268;DHT22;39156;51.176;6.738;2022-12-05T10:56:37;4.60;73.30
53268;DHT22;39156;51.176;6.738;2022-12-05T10:59:17;4.60;73.80
53268;DHT22;39156;51.176;6.738;2022-12-05T11:01:54;4.60;73.50
53268;DHT22;39156;51.176;6.738;2022-12-05T11:04:30;4.50;73.40
53268;DHT22;39156;51.176;6.738;2022-12-05T11:06:57;4.50;73.50
53268;DHT22;39156;51.176;6.738;2022-12-05T11:09:35;4.60;73.70
53268;DHT22;39156;51.176;6.738;2022-12-05T11:12:19;4.60;73.80
53268;DHT22;39156;51.176;6.738;2022-12-05T11:17:26;4.50;73.70
53268;DHT22;39156;51.176;6.738;2022-12-05T11:22:56;4.40;73.40
53268;DHT22;39156;51.176;6.738;2022-12-05T11:27:55;4.30;73.40
53268;DHT22;39156;51.176;6.738;2022-12-05T11:30:24;4.20;73.50
53268;DHT22;39156;51.176;6.738;2022-12-05T11:33:20;4.20;74.20
53268;DHT22;39156;51.176;6.738;2022-12-05T11:35:49;4.10;73.80
53268;DHT22;39156;51.176;6.738;2022-12-05T11:38:18;4.20;74.00
53268;DHT22;39156;51.176;6.738;2022-12-05T11:46:47;4.10;73.80
53268;DHT22;39156;51.176;6.738;2022-12-05T11:55:25;3.80;73.60
53268;DHT22;39156;51.176;6.738;2022-12-05T11:58:11;3.80;74.10
53268;DHT22;39156;51.176;6.738;2022-12-05T12:00:55;3.80;74.10
53268;DHT22;39156;51.176;6.738;2022-12-05T12:04:11;3.60;74.10
53268;DHT22;39156;51.176;6.738;2022-12-05T12:07:06;3.70;75.00
53268;DHT22;39156;51.176;6.738;2022-12-05T12:12:43;3.70;75.10
53268;DHT22;39156;51.176;6.738;2022-12-05T12:21:33;3.70;74.70
53268;DHT22;39156;51.176;6.738;2022-12-05T12:27:41;3.70;74.90
53268;DHT22;39156;51.176;6.738;2022-12-05T12:30:48;3.70;74.50
53268;DHT22;39156;51.176;6.738;2022-12-05T12:33:36;3.80;74.60
53268;DHT22;39156;51.176;6.738;2022-12-05T12:36:21;3.70;74.70
53268;DHT22;39156;51.176;6.738;2022-12-05T12:44:52;3.70;74.90
53268;DHT22;39156;51.176;6.738;2022-12-05T12:50:23;3.70;74.80
53268;DHT22;39156;51.176;6.738;2022-12-05T13:02:42;3.60;74.50
53268;DHT22;39156;51.176;6.738;2022-12-05T13:08:10;3.70;74.70
53268;DHT22;39156;51.176;6.738;2022-12-05T13:10:43;3.70;74.80
53268;DHT22;39156;51.176;6.738;2022-12-05T13:13:15;3.70;74.80
53268;DHT22;39156;51.176;6.738;2022-12-05T13:15:50;3.70;74.80
53268;DHT22;39156;51.176;6.738;2022-12-05T13:18:19;3.60;74.50
53268;DHT22;39156;51.176;6.738;2022-12-05T13:20:57;3.70;74.40
53268;DHT22;39156;51.176;6.738;2022-12-05T13:23:26;3.60;74.60
53268;DHT22;39156;51.176;6.738;2022-12-05T13:25:55;3.60;74.90
53268;DHT22;39156;51.176;6.738;2022-12-05T13:28:27;3.60;74.50
53268;DHT22;39156;51.176;6.738;2022-12-05T13:30:55;3.70;74.50
53268;DHT22;39156;51.176;6.738;2022-12-05T13:33:25;3.60;74.50
53268;DHT22;39156;51.176;6.738;2022-12-05T13:36:13;3.70;74.50
53268;DHT22;39156;51.176;6.738;2022-12-05T13:41:57;3.60;73.90
53268;DHT22;39156;51.176;6.738;2022-12-05T13:44:43;3.70;73.80
53268;DHT22;39156;51.176;6.738;2022-12-05T13:50:50;3.70;73.80
53268;DHT22;39156;51.176;6.738;2022-12-05T13:56:00;3.70;73.60
53268;DHT22;39156;51.176;6.738;2022-12-05T13:58:41;3.70;73.60
53268;DHT22;39156;51.176;6.738;2022-12-05T14:04:00;3.60;73.40
53268;DHT22;39156;51.176;6.738;2022-12-05T14:17:29;3.40;73.20
53268;DHT22;39156;51.176;6.738;2022-12-05T14:37:56;3.30;73.30
53268;DHT22;39156;51.176;6.738;2022-12-05T14:40:38;3.30;72.90
53268;DHT22;39156;51.176;6.738;2022-12-05T14:43:14;3.30;73.00
53268;DHT22;39156;51.176;6.738;2022-12-05T14:48:37;3.20;73.10
53268;DHT22;39156;51.176;6.738;2022-12-05T14:51:42;3.10;72.90
53268;DHT22;39156;51.176;6.738;2022-12-05T14:54:14;3.30;73.20
53268;DHT22;39156;51.176;6.738;2022-12-05T14:56:47;3.10;72.90
53268;DHT22;39156;51.176;6.738;2022-12-05T14:59:27;3.00;72.80
53268;DHT22;39156;51.176;6.738;2022-12-05T15:01:57;3.10;72.90
53268;DHT22;39156;51.176;6.738;2022-12-05T15:04:43;3.10;72.70
53268;DHT22;39156;51.176;6.738;2022-12-05T15:07:18;3.10;72.80
53268;DHT22;39156;51.176;6.738;2022-12-05T15:10:09;3.10;72.70
53268;DHT22;39156;51.176;6.738;2022-12-05T15:12:45;3.10;72.60
53268;DHT22;39156;51.176;6.738;2022-12-05T15:15:34;3.00;72.70
53268;DHT22;39156;51.176;6.738;2022-12-05T15:18:08;3.00;72.80
53268;DHT22;39156;51.176;6.738;2022-12-05T15:31:50;3.10;72.90
53268;DHT22;39156;51.176;6.738;2022-12-05T15:40:08;3.00;72.80
53268;DHT22;39156;51.176;6.738;2022-12-05T15:42:43;3.00;72.80
53268;DHT22;39156;51.176;6.738;2022-12-05T15:45:29;3.00;72.60
53268;DHT22;39156;51.176;6.738;2022-12-05T15:48:12;3.00;72.70
53268;DHT22;39156;51.176;6.738;2022-12-05T15:50:47;3.00;72.70
53268;DHT22;39156;51.176;6.738;2022-12-05T15:53:35;3.00;72.80
53268;DHT22;39156;51.176;6.738;2022-12-05T15:58:42;3.10;72.90
53268;DHT22;39156;51.176;6.738;2022-12-05T16:01:29;3.10;72.80
53268;DHT22;39156;51.176;6.738;2022-12-05T16:04:02;3.00;72.70
53268;DHT22;39156;51.176;6.738;2022-12-05T16:06:47;3.00;72.80
53268;DHT22;39156;51.176;6.738;2022-12-05T16:09:17;3.00;72.70
53268;DHT22;39156;51.176;6.738;2022-12-05T16:11:55;3.10;72.60
53268;DHT22;39156;51.176;6.738;2022-12-05T16:14:23;3.00;72.40
53268;DHT22;39156;51.176;6.738;2022-12-05T16:16:57;3.10;72.70
53268;DHT22;39156;51.176;6.738;2022-12-05T16:19:25;3.00;72.50
53268;DHT22;39156;51.176;6.738;2022-12-05T16:22:29;3.00;72.40
53268;DHT22;39156;51.176;6.738;2022-12-05T16:25:03;3.00;72.60
53268;DHT22;39156;51.176;6.738;2022-12-05T16:27:39;3.00;72.50
53268;DHT22;39156;51.176;6.738;2022-12-05T16:32:38;3.00;72.50
53268;DHT22;39156;51.176;6.738;2022-12-05T16:38:25;3.00;72.70
53268;DHT22;39156;51.176;6.738;2022-12-05T16:40:52;3.00;72.50
53268;DHT22;39156;51.176;6.738;2022-12-05T16:45:47;2.90;72.50
53268;DHT22;39156;51.176;6.738;2022-12-05T16:48:17;3.00;72.30
53268;DHT22;39156;51.176;6.738;2022-12-05T16:50:46;3.00;72.40
53268;DHT22;39156;51.176;6.738;2022-12-05T16:53:13;3.00;72.60
53268;DHT22;39156;51.176;6.738;2022-12-05T16:55:43;3.00;73.10
53268;DHT22;39156;51.176;6.738;2022-12-05T16:58:12;3.00;72.30
53268;DHT22;39156;51.176;6.738;2022-12-05T17:00:42;3.00;72.50
53268;DHT22;39156;51.176;6.738;2022-12-05T17:03:11;3.00;72.40
53268;DHT22;39156;51.176;6.738;2022-12-05T17:05:37;3.00;72.50
53268;DHT22;39156;51.176;6.738;2022-12-05T17:08:03;3.00;72.40
53268;DHT22;39156;51.176;6.738;2022-12-05T17:10:29;2.90;72.90
53268;DHT22;39156;51.176;6.738;2022-12-05T17:12:54;3.00;72.30
53268;DHT22;39156;51.176;6.738;2022-12-05T17:15:20;3.00;72.40
53268;DHT22;39156;51.176;6.738;2022-12-05T17:17:46;3.10;72.40
53268;DHT22;39156;51.176;6.738;2022-12-05T17:20:12;3.00;72.30
53268;DHT22;39156;51.176;6.738;2022-12-05T17:22:38;3.00;72.50
53268;DHT22;39156;51.176;6.738;2022-12-05T17:25:27;2.90;72.30
53268;DHT22;39156;51.176;6.738;2022-12-05T17:27:56;2.90;72.20
53268;DHT22;39156;51.176;6.738;2022-12-05T17:30:23;3.00;72.40
53268;DHT22;39156;51.176;6.738;2022-12-05T17:32:49;3.00;72.70
53268;DHT22;39156;51.176;6.738;2022-12-05T17:35:17;3.00;72.40
53268;DHT22;39156;51.176;6.738;2022-12-05T17:37:43;3.00;72.50
53268;DHT22;39156;51.176;6.738;2022-12-05T17:40:10;2.90;72.60
53268;DHT22;39156;51.176;6.738;2022-12-05T17:42:38;2.90;72.50
53268;DHT22;39156;51.176;6.738;2022-12-05T17:45:04;3.00;72.50
53268;DHT22;39156;51.176;6.738;2022-12-05T17:47:39;3.00;72.90
53268;DHT22;39156;51.176;6.738;2022-12-05T17:50:13;2.90;72.50
53268;DHT22;39156;51.176;6.738;2022-12-05T17:52:41;3.00;72.70
53268;DHT22;39156;51.176;6.738;2022-12-05T17:55:21;2.90;72.60
53268;DHT22;39156;51.176;6.738;2022-12-05T17:57:48;2.90;72.70
53268;DHT22;39156;51.176;6.738;2022-12-05T18:00:16;2.90;72.70
53268;DHT22;39156;51.176;6.738;2022-12-05T18:02:44;2.90;72.70
53268;DHT22;39156;51.176;6.738;2022-12-05T18:05:14;2.90;72.70
53268;DHT22;39156;51.176;6.738;2022-12-05T18:07:41;2.90;72.60
53268;DHT22;39156;51.176;6.738;2022-12-05T18:10:13;3.00;72.70
53268;DHT22;39156;51.176;6.738;2022-12-05T18:12:41;2.90;72.70
53268;DHT22;39156;51.176;6.738;2022-12-05T18:15:07;3.00;72.70
53268;DHT22;39156;51.176;6.738;2022-12-05T18:17:34;2.90;72.80
53268;DHT22;39156;51.176;6.738;2022-12-05T18:19:59;3.00;72.80
53268;DHT22;39156;51.176;6.738;2022-12-05T18:22:26;3.00;72.80
53268;DHT22;39156;51.176;6.738;2022-12-05T18:24:53;3.00;72.80
53268;DHT22;39156;51.176;6.738;2022-12-05T18:27:20;3.10;72.90
53268;DHT22;39156;51.176;6.738;2022-12-05T18:29:51;2.90;72.80
53268;DHT22;39156;51.176;6.738;2022-12-05T18:32:18;3.00;72.90
53268;DHT22;39156;51.176;6.738;2022-12-05T18:34:44;3.00;72.90
53268;DHT22;39156;51.176;6.738;2022-12-05T18:37:10;3.00;72.90
53268;DHT22;39156;51.176;6.738;2022-12-05T18:39:38;3.00;72.80
53268;DHT22;39156;51.176;6.738;2022-12-05T18:42:05;3.10;72.80
53268;DHT22;39156;51.176;6.738;2022-12-05T18:44:30;3.00;72.80
53268;DHT22;39156;51.176;6.738;2022-12-05T18:46:56;3.10;72.80
53268;DHT22;39156;51.176;6.738;2022-12-05T18:49:23;3.10;72.60
53268;DHT22;39156;51.176;6.738;2022-12-05T18:51:49;3.10;72.70
53268;DHT22;39156;51.176;6.738;2022-12-05T18:54:15;3.10;72.60
53268;DHT22;39156;51.176;6.738;2022-12-05T18:56:41;3.10;72.60
53268;DHT22;39156;51.176;6.738;2022-12-05T18:59:13;3.10;72.60
53268;DHT22;39156;51.176;6.738;2022-12-05T19:01:40;3.10;72.50
53268;DHT22;39156;51.176;6.738;2022-12-05T19:04:08;3.20;72.50
53268;DHT22;39156;51.176;6.738;2022-12-05T19:06:37;3.10;72.50
53268;DHT22;39156;51.176;6.738;2022-12-05T19:09:18;3.10;72.50
53268;DHT22;39156;51.176;6.738;2022-12-05T19:11:49;3.10;72.50
53268;DHT22;39156;51.176;6.738;2022-12-05T19:14:17;3.10;72.50
53268;DHT22;39156;51.176;6.738;2022-12-05T19:16:44;3.00;72.40
53268;DHT22;39156;51.176;6.738;2022-12-05T19:19:12;3.10;72.50
53268;DHT22;39156;51.176;6.738;2022-12-05T19:21:38;3.00;72.40
53268;DHT22;39156;51.176;6.738;2022-12-05T19:24:06;3.10;72.50
53268;DHT22;39156;51.176;6.738;2022-12-05T19:26:33;3.10;72.50